sensor_id;sensor_type;location;lat;lon;timestamp;pressure;altitude;pressure_sealevel;temperature;humidity
63715;BME280;49858;48.956;9.076;2023-02-23T00:01:51;98414.78;;;12.16;100.00
63715;BME280;49858;48.956;9.076;2023-02-23T00:04:19;98412.75;;;11.83;100.00
63715;BME280;49858;48.956;9.076;2023-02-23T00:06:51;98414.75;;;12.46;100.00
63715;BME280;49858;48.956;9.076;2023-02-23T00:09:19;98419.44;;;12.75;100.00
63715;BME280;49858;48.956;9.076;2023-02-23T00:11:50;98421.56;;;12.89;100.00
63715;BME280;49858;48.956;9.076;2023-02-23T00:14:19;98422.47;;;12.03;100.00
63715;BME280;49858;48.956;9.076;2023-02-23T00:16:48;98417.22;;;12.54;100.00
63715;BME280;49858;48.956;9.076;2023-02-23T00:19:16;98413.00;;;12.00;100.00
63715;BME280;49858;48.956;9.076;2023-02-23T00:21:44;98412.94;;;12.27;100.00
63715;BME280;49858;48.956;9.076;2023-02-23T00:24:13;98409.25;;;12.16;100.00
63715;BME280;49858;48.956;9.076;2023-02-23T00:26:42;98402.81;;;12.68;100.00
63715;BME280;49858;48.956;9.076;2023-02-23T00:29:12;98401.47;;;12.92;100.00
63715;BME280;49858;48.956;9.076;2023-02-23T00:31:43;98399.63;;;13.07;100.00
63715;BME280;49858;48.956;9.076;2023-02-23T00:34:13;98397.78;;;13.18;100.00
63715;BME280;49858;48.956;9.076;2023-02-23T00:36:42;98403.13;;;13.00;100.00
63715;BME280;49858;48.956;9.076;2023-02-23T00:39:13;98399.06;;;12.87;100.00
63715;BME280;49858;48.956;9.076;2023-02-23T00:41:47;98406.63;;;12.94;100.00
63715;BME280;49858;48.956;9.076;2023-02-23T00:44:16;98400.16;;;12.79;100.00
63715;BME280;49858;48.956;9.076;2023-02-23T00:46:45;98403.19;;;12.67;100.00
63715;BME280;49858;48.956;9.076;2023-02-23T00:49:15;98401.41;;;12.48;100.00
63715;BME280;49858;48.956;9.076;2023-02-23T00:51:43;98402.00;;;12.34;100.00
63715;BME280;49858;48.956;9.076;2023-02-23T00:54:16;98402.63;;;11.90;100.00
63715;BME280;49858;48.956;9.076;2023-02-23T00:56:44;98398.63;;;11.88;100.00
63715;BME280;49858;48.956;9.076;2023-02-23T00:59:13;98392.34;;;11.87;100.00
63715;BME280;49858;48.956;9.076;2023-02-23T01:01:41;98398.59;;;11.35;100.00
63715;BME280;49858;48.956;9.076;2023-02-23T01:04:10;98391.13;;;11.35;100.00
63715;BME280;49858;48.956;9.076;2023-02-23T01:06:39;98393.63;;;11.70;100.00
63715;BME280;49858;48.956;9.076;2023-02-23T01:09:09;98384.03;;;11.61;100.00
63715;BME280;49858;48.956;9.076;2023-02-23T01:11:40;98399.09;;;11.67;100.00
63715;BME280;49858;48.956;9.076;2023-02-23T01:14:13;98391.34;;;11.76;100.00
63715;BME280;49858;48.956;9.076;2023-02-23T01:16:41;98390.59;;;11.79;100.00
63715;BME280;49858;48.956;9.076;2023-02-23T01:19:09;98393.06;;;11.84;100.00
63715;BME280;49858;48.956;9.076;2023-02-23T01:21:39;98392.09;;;11.99;100.00
63715;BME280;49858;48.956;9.076;2023-02-23T01:24:08;98397.34;;;11.82;100.00
63715;BME280;49858;48.956;9.076;2023-02-23T01:26:41;98391.78;;;11.78;100.00
63715;BME280;49858;48.956;9.076;2023-02-23T01:29:11;98399.09;;;11.67;100.00
63715;BME280;49858;48.956;9.076;2023-02-23T01:31:41;98394.25;;;11.83;100.00
63715;BME280;49858;48.956;9.076;2023-02-23T01:34:11;98383.84;;;11.73;100.00
63715;BME280;49858;48.956;9.076;2023-02-23T01:36:41;98397.66;;;11.76;100.00
63715;BME280;49858;48.956;9.076;2023-02-23T01:39:10;98389.34;;;11.99;100.00
63715;BME280;49858;48.956;9.076;2023-02-23T01:41:41;98392.66;;;11.82;100.00
63715;BME280;49858;48.956;9.076;2023-02-23T01:47:12;98382.09;;;12.18;100.00
63715;BME280;49858;48.956;9.076;2023-02-23T01:49:40;98389.13;;;12.45;100.00
63715;BME280;49858;48.956;9.076;2023-02-23T01:52:12;98386.19;;;12.61;100.00
63715;BME280;49858;48.956;9.076;2023-02-23T01:54:43;98388.44;;;12.52;100.00
63715;BME280;49858;48.956;9.076;2023-02-23T01:57:19;98376.69;;;12.59;100.00
63715;BME280;49858;48.956;9.076;2023-02-23T01:59:51;98383.44;;;12.65;100.00
63715;BME280;49858;48.956;9.076;2023-02-23T02:02:24;98388.78;;;12.50;100.00
63715;BME280;49858;48.956;9.076;2023-02-23T02:04:59;98381.75;;;12.53;100.00
63715;BME280;49858;48.956;9.076;2023-02-23T02:07:28;98380.88;;;11.85;100.00
63715;BME280;49858;48.956;9.076;2023-02-23T02:10:01;98397.03;;;11.37;100.00
63715;BME280;49858;48.956;9.076;2023-02-23T02:12:45;98381.94;;;11.77;100.00
63715;BME280;49858;48.956;9.076;2023-02-23T02:15:19;98381.66;;;11.59;100.00
63715;BME280;49858;48.956;9.076;2023-02-23T02:17:58;98385.41;;;11.74;100.00
63715;BME280;49858;48.956;9.076;2023-02-23T02:20:54;98375.75;;;11.84;100.00
63715;BME280;49858;48.956;9.076;2023-02-23T02:26:35;98371.88;;;11.88;100.00
63715;BME280;49858;48.956;9.076;2023-02-23T02:32:41;98371.63;;;11.74;100.00
63715;BME280;49858;48.956;9.076;2023-02-23T02:38:50;98370.03;;;12.30;100.00
63715;BME280;49858;48.956;9.076;2023-02-23T02:41:27;98372.69;;;12.52;100.00
63715;BME280;49858;48.956;9.076;2023-02-23T02:44:08;98366.50;;;12.29;100.00
63715;BME280;49858;48.956;9.076;2023-02-23T02:46:40;98362.38;;;12.49;100.00
63715;BME280;49858;48.956;9.076;2023-02-23T02:49:14;98363.22;;;12.53;100.00
63715;BME280;49858;48.956;9.076;2023-02-23T02:51:47;98367.78;;;12.09;100.00
63715;BME280;49858;48.956;9.076;2023-02-23T02:54:22;98360.34;;;12.43;100.00
63715;BME280;49858;48.956;9.076;2023-02-23T02:56:54;98366.66;;;12.43;100.00
63715;BME280;49858;48.956;9.076;2023-02-23T02:59:26;98367.66;;;12.62;100.00
63715;BME280;49858;48.956;9.076;2023-02-23T03:02:15;98362.09;;;12.24;100.00
63715;BME280;49858;48.956;9.076;2023-02-23T03:05:02;98355.97;;;12.38;100.00
63715;BME280;49858;48.956;9.076;2023-02-23T03:07:58;98354.66;;;12.62;100.00
63715;BME280;49858;48.956;9.076;2023-02-23T03:10:55;98352.22;;;12.57;100.00
63715;BME280;49858;48.956;9.076;2023-02-23T03:13:51;98349.81;;;12.56;100.00
63715;BME280;49858;48.956;9.076;2023-02-23T03:16:48;98347.94;;;12.63;100.00
63715;BME280;49858;48.956;9.076;2023-02-23T03:19:39;98353.31;;;12.86;100.00
63715;BME280;49858;48.956;9.076;2023-02-23T03:22:31;98353.91;;;12.69;100.00
63715;BME280;49858;48.956;9.076;2023-02-23T03:25:25;98356.91;;;12.53;100.00
63715;BME280;49858;48.956;9.076;2023-02-23T03:28:18;98358.75;;;12.42;100.00
63715;BME280;49858;48.956;9.076;2023-02-23T03:31:10;98366.81;;;12.58;100.00
63715;BME280;49858;48.956;9.076;2023-02-23T03:34:04;98367.66;;;12.62;100.00
63715;BME280;49858;48.956;9.076;2023-02-23T03:36:57;98359.38;;;12.62;100.00
63715;BME280;49858;48.956;9.076;2023-02-23T03:39:50;98357.16;;;12.78;100.00
63715;BME280;49858;48.956;9.076;2023-02-23T03:42:40;98365.72;;;12.66;100.00
63715;BME280;49858;48.956;9.076;2023-02-23T03:45:30;98360.84;;;12.52;100.00
63715;BME280;49858;48.956;9.076;2023-02-23T03:48:19;98362.88;;;11.91;100.00
63715;BME280;49858;48.956;9.076;2023-02-23T03:51:06;98372.22;;;11.60;100.00
63715;BME280;49858;48.956;9.076;2023-02-23T03:54:02;98369.47;;;11.60;100.00
63715;BME280;49858;48.956;9.076;2023-02-23T03:56:52;98367.19;;;11.66;100.00
63715;BME280;49858;48.956;9.076;2023-02-23T03:59:45;98363.28;;;11.40;100.00
63715;BME280;49858;48.956;9.076;2023-02-23T04:02:40;98362.94;;;11.45;100.00
63715;BME280;49858;48.956;9.076;2023-02-23T04:05:28;98364.00;;;11.37;100.00
63715;BME280;49858;48.956;9.076;2023-02-23T04:08:17;98366.78;;;11.64;100.00
63715;BME280;49858;48.956;9.076;2023-02-23T04:11:12;98369.28;;;11.76;100.00
63715;BME280;49858;48.956;9.076;2023-02-23T04:14:01;98368.84;;;11.44;100.00
63715;BME280;49858;48.956;9.076;2023-02-23T04:16:30;98369.16;;;11.65;100.00
63715;BME280;49858;48.956;9.076;2023-02-23T04:19:00;98367.91;;;11.86;100.00
63715;BME280;49858;48.956;9.076;2023-02-23T04:21:27;98370.38;;;11.94;100.00
63715;BME280;49858;48.956;9.076;2023-02-23T04:23:55;98372.59;;;11.85;100.00
63715;BME280;49858;48.956;9.076;2023-02-23T04:26:23;98371.88;;;11.88;100.00
63715;BME280;49858;48.956;9.076;2023-02-23T04:28:51;98365.91;;;11.60;100.00
63715;BME280;49858;48.956;9.076;2023-02-23T04:31:18;98379.63;;;11.30;100.00
63715;BME280;49858;48.956;9.076;2023-02-23T04:33:51;98378.13;;;11.59;100.00
63715;BME280;49858;48.956;9.076;2023-02-23T04:36:20;98372.53;;;11.82;100.00
63715;BME280;49858;48.956;9.076;2023-02-23T04:38:49;98377.69;;;11.83;100.00
63715;BME280;49858;48.956;9.076;2023-02-23T04:41:17;98380.19;;;12.22;100.00
63715;BME280;49858;48.956;9.076;2023-02-23T04:43:45;98373.88;;;12.21;100.00
63715;BME280;49858;48.956;9.076;2023-02-23T04:46:13;98366.84;;;12.27;100.00
63715;BME280;49858;48.956;9.076;2023-02-23T04:48:41;98376.97;;;12.50;100.00
63715;BME280;49858;48.956;9.076;2023-02-23T04:51:09;98374.50;;;12.41;100.00
63715;BME280;49858;48.956;9.076;2023-02-23T04:53:38;98373.91;;;12.59;100.00
63715;BME280;49858;48.956;9.076;2023-02-23T04:56:06;98376.38;;;12.67;100.00
63715;BME280;49858;48.956;9.076;2023-02-23T04:58:34;98370.56;;;12.76;100.00
63715;BME280;49858;48.956;9.076;2023-02-23T05:01:05;98374.66;;;12.56;100.00
63715;BME280;49858;48.956;9.076;2023-02-23T05:03:33;98369.28;;;12.66;100.00
63715;BME280;49858;48.956;9.076;2023-02-23T05:06:02;98372.41;;;12.65;100.00
63715;BME280;49858;48.956;9.076;2023-02-23T05:08:30;98372.09;;;12.73;100.00
63715;BME280;49858;48.956;9.076;2023-02-23T05:10:59;98375.88;;;12.58;100.00
63715;BME280;49858;48.956;9.076;2023-02-23T05:13:27;98366.13;;;12.68;100.00
63715;BME280;49858;48.956;9.076;2023-02-23T05:15:55;98365.53;;;12.85;100.00
63715;BME280;49858;48.956;9.076;2023-02-23T05:18:24;98365.03;;;12.76;100.00
63715;BME280;49858;48.956;9.076;2023-02-23T05:20:52;98375.94;;;12.65;100.00
63715;BME280;49858;48.956;9.076;2023-02-23T05:23:20;98378.16;;;12.49;100.00
63715;BME280;49858;48.956;9.076;2023-02-23T05:25:48;98374.00;;;12.66;100.00
63715;BME280;49858;48.956;9.076;2023-02-23T05:28:17;98368.97;;;12.41;100.00
63715;BME280;49858;48.956;9.076;2023-02-23T05:30:45;98377.63;;;12.06;100.00
63715;BME280;49858;48.956;9.076;2023-02-23T05:33:13;98372.91;;;11.80;100.00
63715;BME280;49858;48.956;9.076;2023-02-23T05:35:43;98381.06;;;11.73;100.00
63715;BME280;49858;48.956;9.076;2023-02-23T05:38:11;98384.16;;;11.68;100.00
63715;BME280;49858;48.956;9.076;2023-02-23T05:40:39;98384.31;;;11.78;100.00
63715;BME280;49858;48.956;9.076;2023-02-23T05:43:07;98378.28;;;11.20;100.00
63715;BME280;49858;48.956;9.076;2023-02-23T05:45:40;98380.66;;;11.44;100.00
63715;BME280;49858;48.956;9.076;2023-02-23T05:48:08;98386.50;;;11.16;100.00
63715;BME280;49858;48.956;9.076;2023-02-23T05:50:36;98383.84;;;11.00;100.00
63715;BME280;49858;48.956;9.076;2023-02-23T05:53:04;98383.50;;;11.25;100.00
63715;BME280;49858;48.956;9.076;2023-02-23T05:55:32;98373.44;;;11.13;100.00
63715;BME280;49858;48.956;9.076;2023-02-23T05:58:00;98382.19;;;11.19;100.00
63715;BME280;49858;48.956;9.076;2023-02-23T06:00:28;98378.16;;;11.13;100.00
63715;BME280;49858;48.956;9.076;2023-02-23T06:02:57;98377.19;;;11.24;100.00
63715;BME280;49858;48.956;9.076;2023-02-23T06:05:25;98368.81;;;10.94;100.00
63715;BME280;49858;48.956;9.076;2023-02-23T06:07:53;98374.56;;;11.09;100.00
63715;BME280;49858;48.956;9.076;2023-02-23T06:10:22;98375.53;;;11.20;100.00
63715;BME280;49858;48.956;9.076;2023-02-23T06:12:50;98373.81;;;11.12;100.00
63715;BME280;49858;48.956;9.076;2023-02-23T06:15:18;98377.66;;;11.30;100.00
63715;BME280;49858;48.956;9.076;2023-02-23T06:17:46;98381.91;;;11.50;100.00
63715;BME280;49858;48.956;9.076;2023-02-23T06:20:15;98386.63;;;11.50;100.00
63715;BME280;49858;48.956;9.076;2023-02-23T06:22:43;98389.94;;;11.59;100.00
63715;BME280;49858;48.956;9.076;2023-02-23T06:25:11;98394.59;;;11.32;100.00
63715;BME280;49858;48.956;9.076;2023-02-23T06:27:39;98391.34;;;11.49;100.00
63715;BME280;49858;48.956;9.076;2023-02-23T06:30:09;98396.22;;;11.60;100.00
63715;BME280;49858;48.956;9.076;2023-02-23T06:32:37;98400.03;;;11.78;100.00
63715;BME280;49858;48.956;9.076;2023-02-23T06:35:08;98395.50;;;11.89;100.00
63715;BME280;49858;48.956;9.076;2023-02-23T06:37:38;98398.38;;;11.96;100.00
63715;BME280;49858;48.956;9.076;2023-02-23T06:40:07;98407.47;;;12.00;100.00
63715;BME280;49858;48.956;9.076;2023-02-23T06:42:36;98399.94;;;11.97;100.00
63715;BME280;49858;48.956;9.076;2023-02-23T06:45:04;98402.19;;;12.18;100.00
63715;BME280;49858;48.956;9.076;2023-02-23T06:47:32;98404.59;;;12.20;100.00
63715;BME280;49858;48.956;9.076;2023-02-23T06:50:00;98410.63;;;12.29;100.00
63715;BME280;49858;48.956;9.076;2023-02-23T06:52:28;98415.94;;;12.45;100.00
63715;BME280;49858;48.956;9.076;2023-02-23T06:54:58;98413.91;;;12.42;100.00
63715;BME280;49858;48.956;9.076;2023-02-23T06:57:26;98411.38;;;12.60;100.00
63715;BME280;49858;48.956;9.076;2023-02-23T06:59:53;98407.53;;;12.68;100.00
63715;BME280;49858;48.956;9.076;2023-02-23T07:02:22;98410.75;;;12.73;100.00
63715;BME280;49858;48.956;9.076;2023-02-23T07:04:49;98422.56;;;12.74;100.00
63715;BME280;49858;48.956;9.076;2023-02-23T07:07:17;98428.09;;;12.74;100.00
63715;BME280;49858;48.956;9.076;2023-02-23T07:09:45;98422.50;;;12.67;100.00
63715;BME280;49858;48.956;9.076;2023-02-23T07:12:14;98425.66;;;12.69;100.00
63715;BME280;49858;48.956;9.076;2023-02-23T07:14:42;98432.50;;;11.88;100.00
63715;BME280;49858;48.956;9.076;2023-02-23T07:17:10;98419.28;;;11.48;100.00
63715;BME280;49858;48.956;9.076;2023-02-23T07:19:38;98433.22;;;11.85;100.00
63715;BME280;49858;48.956;9.076;2023-02-23T07:22:06;98436.69;;;12.05;100.00
63715;BME280;49858;48.956;9.076;2023-02-23T07:24:33;98440.97;;;12.29;100.00
63715;BME280;49858;48.956;9.076;2023-02-23T07:27:01;98438.81;;;12.15;100.00
63715;BME280;49858;48.956;9.076;2023-02-23T07:29:31;98440.13;;;12.25;100.00
63715;BME280;49858;48.956;9.076;2023-02-23T07:31:59;98443.38;;;12.34;100.00
63715;BME280;49858;48.956;9.076;2023-02-23T07:34:27;98451.28;;;12.66;100.00
63715;BME280;49858;48.956;9.076;2023-02-23T07:36:55;98442.09;;;12.92;100.00
63715;BME280;49858;48.956;9.076;2023-02-23T07:39:23;98450.06;;;13.00;100.00
63715;BME280;49858;48.956;9.076;2023-02-23T07:41:51;98449.50;;;12.84;100.00
63715;BME280;49858;48.956;9.076;2023-02-23T07:44:19;98447.91;;;12.83;100.00
63715;BME280;49858;48.956;9.076;2023-02-23T07:46:48;98450.13;;;13.04;100.00
63715;BME280;49858;48.956;9.076;2023-02-23T07:49:18;98450.97;;;13.12;100.00
63715;BME280;49858;48.956;9.076;2023-02-23T07:51:46;98450.00;;;13.27;100.00
63715;BME280;49858;48.956;9.076;2023-02-23T07:54:14;98450.63;;;13.13;100.00
63715;BME280;49858;48.956;9.076;2023-02-23T07:56:42;98458.72;;;12.32;100.00
63715;BME280;49858;48.956;9.076;2023-02-23T07:59:10;98452.91;;;12.40;100.00
63715;BME280;49858;48.956;9.076;2023-02-23T08:01:38;98454.59;;;12.48;100.00
63715;BME280;49858;48.956;9.076;2023-02-23T08:04:08;98451.13;;;12.89;100.00
63715;BME280;49858;48.956;9.076;2023-02-23T08:06:36;98456.78;;;13.03;100.00
63715;BME280;49858;48.956;9.076;2023-02-23T08:09:04;98458.38;;;12.67;100.00
63715;BME280;49858;48.956;9.076;2023-02-23T08:11:33;98456.59;;;11.45;100.00
63715;BME280;49858;48.956;9.076;2023-02-23T08:14:00;98459.63;;;12.13;100.00
63715;BME280;49858;48.956;9.076;2023-02-23T08:16:30;98463.63;;;12.15;100.00
63715;BME280;49858;48.956;9.076;2023-02-23T08:18:59;98457.78;;;12.20;100.00
63715;BME280;49858;48.956;9.076;2023-02-23T08:21:29;98460.41;;;12.40;100.00
63715;BME280;49858;48.956;9.076;2023-02-23T08:23:57;98452.94;;;12.74;100.00
63715;BME280;49858;48.956;9.076;2023-02-23T08:26:25;98457.44;;;13.23;100.00
63715;BME280;49858;48.956;9.076;2023-02-23T08:28:53;98464.63;;;12.97;100.00
63715;BME280;49858;48.956;9.076;2023-02-23T08:31:21;98462.78;;;13.09;100.00
63715;BME280;49858;48.956;9.076;2023-02-23T08:33:51;98466.00;;;12.77;100.00
63715;BME280;49858;48.956;9.076;2023-02-23T08:36:19;98468.97;;;12.65;100.00
63715;BME280;49858;48.956;9.076;2023-02-23T08:38:48;98470.19;;;12.34;100.00
63715;BME280;49858;48.956;9.076;2023-02-23T08:41:16;98469.81;;;11.36;100.00
63715;BME280;49858;48.956;9.076;2023-02-23T08:43:44;98468.34;;;12.15;100.00
63715;BME280;49858;48.956;9.076;2023-02-23T08:46:12;98469.50;;;11.87;100.00
63715;BME280;49858;48.956;9.076;2023-02-23T08:48:42;98464.94;;;12.25;100.00
63715;BME280;49858;48.956;9.076;2023-02-23T08:51:10;98462.25;;;12.02;100.00
63715;BME280;49858;48.956;9.076;2023-02-23T08:53:37;98468.66;;;11.60;100.00
63715;BME280;49858;48.956;9.076;2023-02-23T08:56:07;98465.03;;;11.33;100.00
63715;BME280;49858;48.956;9.076;2023-02-23T08:58:35;98473.28;;;11.33;100.00
63715;BME280;49858;48.956;9.076;2023-02-23T09:01:04;98478.31;;;11.27;100.00
63715;BME280;49858;48.956;9.076;2023-02-23T09:03:32;98476.28;;;11.47;100.00
63715;BME280;49858;48.956;9.076;2023-02-23T09:06:07;98482.38;;;12.63;100.00
63715;BME280;49858;48.956;9.076;2023-02-23T09:08:36;98462.75;;;13.42;100.00
63715;BME280;49858;48.956;9.076;2023-02-23T09:11:05;98470.56;;;13.33;100.00
63715;BME280;49858;48.956;9.076;2023-02-23T09:13:34;98475.53;;;13.20;100.00
63715;BME280;49858;48.956;9.076;2023-02-23T09:16:02;98474.31;;;12.50;100.00
63715;BME280;49858;48.956;9.076;2023-02-23T09:18:30;98469.31;;;13.27;100.00
63715;BME280;49858;48.956;9.076;2023-02-23T09:20:58;98469.47;;;13.89;100.00
63715;BME280;49858;48.956;9.076;2023-02-23T09:23:27;98473.41;;;13.07;100.00
63715;BME280;49858;48.956;9.076;2023-02-23T09:25:55;98476.59;;;13.09;100.00
63715;BME280;49858;48.956;9.076;2023-02-23T09:28:23;98469.84;;;13.06;100.00
63715;BME280;49858;48.956;9.076;2023-02-23T09:30:53;98476.09;;;12.36;100.00
63715;BME280;49858;48.956;9.076;2023-02-23T09:33:21;98469.47;;;12.70;100.00
63715;BME280;49858;48.956;9.076;2023-02-23T09:35:49;98470.25;;;13.04;100.00
63715;BME280;49858;48.956;9.076;2023-02-23T09:38:17;98471.03;;;13.05;100.00
63715;BME280;49858;48.956;9.076;2023-02-23T09:40:47;98465.03;;;13.81;100.00
63715;BME280;49858;48.956;9.076;2023-02-23T09:43:18;98464.06;;;13.59;100.00
63715;BME280;49858;48.956;9.076;2023-02-23T09:45:52;98467.41;;;14.41;100.00
63715;BME280;49858;48.956;9.076;2023-02-23T09:48:27;98462.44;;;14.75;100.00
63715;BME280;49858;48.956;9.076;2023-02-23T09:50:57;98450.34;;;15.51;100.00
63715;BME280;49858;48.956;9.076;2023-02-23T09:53:30;98460.63;;;15.40;100.00
63715;BME280;49858;48.956;9.076;2023-02-23T09:56:06;98463.38;;;15.26;100.00
63715;BME280;49858;48.956;9.076;2023-02-23T09:58:36;98458.44;;;13.96;100.00
63715;BME280;49858;48.956;9.076;2023-02-23T10:01:27;98468.97;;;12.98;100.00
63715;BME280;49858;48.956;9.076;2023-02-23T10:04:06;98461.19;;;13.41;100.00
63715;BME280;49858;48.956;9.076;2023-02-23T10:06:40;98467.13;;;14.57;100.00
63715;BME280;49858;48.956;9.076;2023-02-23T10:09:17;98467.78;;;15.55;100.00
63715;BME280;49858;48.956;9.076;2023-02-23T10:11:52;98469.88;;;13.43;100.00
63715;BME280;49858;48.956;9.076;2023-02-23T10:14:39;98466.06;;;14.94;100.00
63715;BME280;49858;48.956;9.076;2023-02-23T10:17:17;98472.00;;;14.92;100.00
63715;BME280;49858;48.956;9.076;2023-02-23T10:19:52;98471.56;;;14.79;100.00
63715;BME280;49858;48.956;9.076;2023-02-23T10:22:23;98467.09;;;13.91;100.00
63715;BME280;49858;48.956;9.076;2023-02-23T10:24:54;98475.78;;;13.45;100.00
63715;BME280;49858;48.956;9.076;2023-02-23T10:27:29;98463.69;;;14.96;100.00
63715;BME280;49858;48.956;9.076;2023-02-23T10:30:00;98466.75;;;13.48;100.00
63715;BME280;49858;48.956;9.076;2023-02-23T10:32:37;98477.63;;;13.27;100.00
63715;BME280;49858;48.956;9.076;2023-02-23T10:35:10;98464.50;;;14.93;100.00
63715;BME280;49858;48.956;9.076;2023-02-23T10:37:39;98465.78;;;16.24;100.00
63715;BME280;49858;48.956;9.076;2023-02-23T10:40:13;98480.16;;;17.14;100.00
63715;BME280;49858;48.956;9.076;2023-02-23T10:42:42;98473.44;;;17.04;100.00
63715;BME280;49858;48.956;9.076;2023-02-23T10:45:14;98467.78;;;15.63;100.00
63715;BME280;49858;48.956;9.076;2023-02-23T10:47:49;98471.38;;;14.40;100.00
63715;BME280;49858;48.956;9.076;2023-02-23T10:50:20;98477.28;;;15.54;100.00
63715;BME280;49858;48.956;9.076;2023-02-23T10:52:56;98466.94;;;16.23;100.00
63715;BME280;49858;48.956;9.076;2023-02-23T10:55:27;98471.59;;;14.90;100.00
63715;BME280;49858;48.956;9.076;2023-02-23T10:58:08;98474.97;;;14.48;100.00
63715;BME280;49858;48.956;9.076;2023-02-23T11:04:28;98476.31;;;16.82;100.00
63715;BME280;49858;48.956;9.076;2023-02-23T11:07:08;98470.47;;;17.92;100.00
63715;BME280;49858;48.956;9.076;2023-02-23T11:09:36;98466.97;;;17.84;100.00
63715;BME280;49858;48.956;9.076;2023-02-23T11:12:18;98465.69;;;18.33;100.00
63715;BME280;49858;48.956;9.076;2023-02-23T11:14:48;98464.44;;;16.68;100.00
63715;BME280;49858;48.956;9.076;2023-02-23T11:17:26;98458.69;;;16.01;100.00
63715;BME280;49858;48.956;9.076;2023-02-23T11:20:04;98453.31;;;16.85;100.00
63715;BME280;49858;48.956;9.076;2023-02-23T11:22:35;98454.72;;;17.71;100.00
63715;BME280;49858;48.956;9.076;2023-02-23T11:25:14;98449.59;;;17.10;100.00
63715;BME280;49858;48.956;9.076;2023-02-23T11:27:46;98451.41;;;17.38;100.00
63715;BME280;49858;48.956;9.076;2023-02-23T11:30:19;98443.97;;;15.22;100.00
63715;BME280;49858;48.956;9.076;2023-02-23T11:32:51;98438.59;;;13.80;100.00
63715;BME280;49858;48.956;9.076;2023-02-23T11:35:29;98435.69;;;15.47;100.00
63715;BME280;49858;48.956;9.076;2023-02-23T11:38:14;98434.53;;;15.66;100.00
63715;BME280;49858;48.956;9.076;2023-02-23T11:40:57;98427.78;;;15.89;100.00
63715;BME280;49858;48.956;9.076;2023-02-23T11:43:25;98428.84;;;16.41;100.00
63715;BME280;49858;48.956;9.076;2023-02-23T11:45:54;98421.03;;;15.97;100.00
63715;BME280;49858;48.956;9.076;2023-02-23T11:48:26;98426.22;;;17.04;100.00
63715;BME280;49858;48.956;9.076;2023-02-23T11:50:55;98417.88;;;15.91;100.00
63715;BME280;49858;48.956;9.076;2023-02-23T11:53:28;98423.47;;;16.93;100.00
63715;BME280;49858;48.956;9.076;2023-02-23T11:55:59;98412.03;;;17.92;100.00
63715;BME280;49858;48.956;9.076;2023-02-23T11:58:37;98410.53;;;16.54;100.00
63715;BME280;49858;48.956;9.076;2023-02-23T12:01:07;98411.81;;;14.75;100.00
63715;BME280;49858;48.956;9.076;2023-02-23T12:03:43;98422.66;;;17.03;100.00
63715;BME280;49858;48.956;9.076;2023-02-23T12:06:24;98404.41;;;15.61;100.00
63715;BME280;49858;48.956;9.076;2023-02-23T12:09:02;98410.09;;;16.74;100.00
63715;BME280;49858;48.956;9.076;2023-02-23T12:11:34;98410.25;;;16.31;100.00
63715;BME280;49858;48.956;9.076;2023-02-23T12:14:09;98409.97;;;15.40;100.00
63715;BME280;49858;48.956;9.076;2023-02-23T12:16:41;98401.13;;;14.77;100.00
63715;BME280;49858;48.956;9.076;2023-02-23T12:19:21;98401.63;;;15.29;100.00
63715;BME280;49858;48.956;9.076;2023-02-23T12:21:57;98396.88;;;15.79;100.00
63715;BME280;49858;48.956;9.076;2023-02-23T12:24:36;98400.03;;;15.17;100.00
63715;BME280;49858;48.956;9.076;2023-02-23T12:27:10;98409.16;;;15.11;100.00
63715;BME280;49858;48.956;9.076;2023-02-23T12:29:47;98394.88;;;14.98;100.00
63715;BME280;49858;48.956;9.076;2023-02-23T12:32:19;98398.38;;;14.77;100.00
63715;BME280;49858;48.956;9.076;2023-02-23T12:34:53;98401.81;;;14.45;100.00
63715;BME280;49858;48.956;9.076;2023-02-23T12:37:30;98403.16;;;14.00;100.00
63715;BME280;49858;48.956;9.076;2023-02-23T12:40:12;98399.56;;;13.37;100.00
63715;BME280;49858;48.956;9.076;2023-02-23T12:42:48;98393.13;;;13.74;100.00
63715;BME280;49858;48.956;9.076;2023-02-23T12:45:27;98397.41;;;13.68;100.00
63715;BME280;49858;48.956;9.076;2023-02-23T12:48:04;98395.41;;;13.61;100.00
63715;BME280;49858;48.956;9.076;2023-02-23T12:50:36;98382.19;;;13.95;100.00
63715;BME280;49858;48.956;9.076;2023-02-23T12:53:16;98395.34;;;14.13;100.00
63715;BME280;49858;48.956;9.076;2023-02-23T12:55:58;98385.78;;;15.15;100.00
63715;BME280;49858;48.956;9.076;2023-02-23T12:58:39;98391.63;;;16.24;100.00
63715;BME280;49858;48.956;9.076;2023-02-23T13:01:15;98393.81;;;16.69;100.00
63715;BME280;49858;48.956;9.076;2023-02-23T13:06:42;98386.84;;;16.32;100.00
63715;BME280;49858;48.956;9.076;2023-02-23T13:09:23;98378.91;;;16.34;100.00
63715;BME280;49858;48.956;9.076;2023-02-23T13:12:05;98387.97;;;16.45;100.00
63715;BME280;49858;48.956;9.076;2023-02-23T13:14:44;98389.06;;;16.69;100.00
63715;BME280;49858;48.956;9.076;2023-02-23T13:17:30;98391.53;;;16.49;100.00
63715;BME280;49858;48.956;9.076;2023-02-23T13:20:05;98381.06;;;16.89;100.00
63715;BME280;49858;48.956;9.076;2023-02-23T13:22:44;98387.13;;;16.55;100.00
63715;BME280;49858;48.956;9.076;2023-02-23T13:25:27;98380.47;;;16.35;100.00
63715;BME280;49858;48.956;9.076;2023-02-23T13:28:00;98392.72;;;16.52;100.00
63715;BME280;49858;48.956;9.076;2023-02-23T13:30:30;98377.06;;;15.88;100.00
63715;BME280;49858;48.956;9.076;2023-02-23T13:33:01;98382.81;;;16.47;100.00
63715;BME280;49858;48.956;9.076;2023-02-23T13:35:32;98372.44;;;16.58;100.00
63715;BME280;49858;48.956;9.076;2023-02-23T13:38:10;98378.66;;;16.88;100.00
63715;BME280;49858;48.956;9.076;2023-02-23T13:40:45;98380.97;;;17.00;100.00